Terminal Aerodrome Forecast
Issued by NWS Mt. Holly, NJ

Home | Current Version | Previous Version | Text Only | Print | Product List | Glossary On
Versions: 1 2 3 4 5 6 7 8 9 10 11 12 13 14 15
000
FTUS41 KPHI 192000 AAA
TAFACY
TAF AMD
KACY 192036Z 1921/2018 06011KT P6SM BKN024 BKN030 BKN040
      TEMPO 1922/2002 SCT024 BKN030
     FM200800 11005KT P6SM OVC020
     FM201600 14012KT P6SM BKN030=

USA.gov is the U.S. government's official web portal to all federal, state and local government web resources and services.